sensor_id;sensor_type;location;lat;lon;timestamp;P1;durP1;ratioP1;P2;durP2;ratioP2
66487;SDS011;53304;54.550;18.526;2024-03-06T00:00:15;7.43;;;4.55;;
66487;SDS011;53304;54.550;18.526;2024-03-06T00:02:43;8.07;;;4.50;;
66487;SDS011;53304;54.550;18.526;2024-03-06T00:05:08;7.93;;;4.65;;
66487;SDS011;53304;54.550;18.526;2024-03-06T00:07:37;6.72;;;4.32;;
66487;SDS011;53304;54.550;18.526;2024-03-06T00:10:07;7.70;;;4.75;;
66487;SDS011;53304;54.550;18.526;2024-03-06T00:12:33;7.55;;;4.15;;
66487;SDS011;53304;54.550;18.526;2024-03-06T00:15:02;7.07;;;4.78;;
66487;SDS011;53304;54.550;18.526;2024-03-06T00:17:27;7.60;;;4.25;;
66487;SDS011;53304;54.550;18.526;2024-03-06T00:19:55;6.80;;;4.28;;
66487;SDS011;53304;54.550;18.526;2024-03-06T00:22:21;7.72;;;4.53;;
66487;SDS011;53304;54.550;18.526;2024-03-06T00:24:51;7.05;;;4.22;;
66487;SDS011;53304;54.550;18.526;2024-03-06T00:27:16;7.15;;;4.40;;
66487;SDS011;53304;54.550;18.526;2024-03-06T00:29:47;6.80;;;4.50;;
66487;SDS011;53304;54.550;18.526;2024-03-06T00:32:12;8.00;;;4.18;;
66487;SDS011;53304;54.550;18.526;2024-03-06T00:34:42;7.22;;;4.47;;
66487;SDS011;53304;54.550;18.526;2024-03-06T00:37:12;9.02;;;4.15;;
66487;SDS011;53304;54.550;18.526;2024-03-06T00:39:38;9.20;;;4.60;;
66487;SDS011;53304;54.550;18.526;2024-03-06T00:42:06;8.23;;;4.53;;
66487;SDS011;53304;54.550;18.526;2024-03-06T00:44:36;6.93;;;4.50;;
66487;SDS011;53304;54.550;18.526;2024-03-06T00:47:04;8.18;;;4.75;;
66487;SDS011;53304;54.550;18.526;2024-03-06T00:49:29;8.05;;;4.30;;
66487;SDS011;53304;54.550;18.526;2024-03-06T00:51:57;6.75;;;4.13;;
66487;SDS011;53304;54.550;18.526;2024-03-06T00:54:22;7.32;;;4.20;;
66487;SDS011;53304;54.550;18.526;2024-03-06T00:56:50;6.97;;;4.00;;
66487;SDS011;53304;54.550;18.526;2024-03-06T00:59:15;7.82;;;4.32;;
66487;SDS011;53304;54.550;18.526;2024-03-06T01:01:41;7.57;;;4.25;;
66487;SDS011;53304;54.550;18.526;2024-03-06T01:04:07;5.97;;;3.85;;
66487;SDS011;53304;54.550;18.526;2024-03-06T01:06:34;7.75;;;4.78;;
66487;SDS011;53304;54.550;18.526;2024-03-06T01:09:00;7.25;;;4.50;;
66487;SDS011;53304;54.550;18.526;2024-03-06T01:11:25;8.25;;;4.47;;
66487;SDS011;53304;54.550;18.526;2024-03-06T01:13:51;7.03;;;4.13;;
66487;SDS011;53304;54.550;18.526;2024-03-06T01:16:19;7.18;;;4.28;;
66487;SDS011;53304;54.550;18.526;2024-03-06T01:18:45;8.15;;;4.30;;
66487;SDS011;53304;54.550;18.526;2024-03-06T01:21:13;6.82;;;4.30;;
66487;SDS011;53304;54.550;18.526;2024-03-06T01:23:38;8.30;;;4.30;;
66487;SDS011;53304;54.550;18.526;2024-03-06T01:26:06;7.10;;;4.30;;
66487;SDS011;53304;54.550;18.526;2024-03-06T01:28:32;7.35;;;3.95;;
66487;SDS011;53304;54.550;18.526;2024-03-06T01:31:07;7.30;;;4.05;;
66487;SDS011;53304;54.550;18.526;2024-03-06T01:33:32;6.45;;;4.30;;
66487;SDS011;53304;54.550;18.526;2024-03-06T01:35:58;8.57;;;4.38;;
66487;SDS011;53304;54.550;18.526;2024-03-06T01:38:28;6.72;;;4.15;;
66487;SDS011;53304;54.550;18.526;2024-03-06T01:40:53;7.75;;;4.22;;
66487;SDS011;53304;54.550;18.526;2024-03-06T01:43:20;5.80;;;3.92;;
66487;SDS011;53304;54.550;18.526;2024-03-06T01:45:49;6.97;;;4.38;;
66487;SDS011;53304;54.550;18.526;2024-03-06T01:48:16;7.63;;;4.20;;
66487;SDS011;53304;54.550;18.526;2024-03-06T01:50:42;8.52;;;4.10;;
66487;SDS011;53304;54.550;18.526;2024-03-06T01:53:10;8.45;;;4.20;;
66487;SDS011;53304;54.550;18.526;2024-03-06T01:55:39;9.18;;;4.63;;
66487;SDS011;53304;54.550;18.526;2024-03-06T01:58:08;6.55;;;3.67;;
66487;SDS011;53304;54.550;18.526;2024-03-06T02:02:58;6.93;;;4.07;;
66487;SDS011;53304;54.550;18.526;2024-03-06T02:05:24;8.18;;;4.53;;
66487;SDS011;53304;54.550;18.526;2024-03-06T02:07:49;7.45;;;4.50;;
66487;SDS011;53304;54.550;18.526;2024-03-06T02:10:18;6.32;;;4.13;;
66487;SDS011;53304;54.550;18.526;2024-03-06T02:12:49;6.38;;;4.13;;
66487;SDS011;53304;54.550;18.526;2024-03-06T02:15:14;6.38;;;4.10;;
66487;SDS011;53304;54.550;18.526;2024-03-06T02:17:42;9.18;;;4.13;;
66487;SDS011;53304;54.550;18.526;2024-03-06T02:20:11;6.32;;;3.67;;
66487;SDS011;53304;54.550;18.526;2024-03-06T02:22:39;6.85;;;4.35;;
66487;SDS011;53304;54.550;18.526;2024-03-06T02:25:10;6.22;;;4.03;;
66487;SDS011;53304;54.550;18.526;2024-03-06T02:27:40;6.63;;;3.83;;
66487;SDS011;53304;54.550;18.526;2024-03-06T02:30:05;7.72;;;4.40;;
66487;SDS011;53304;54.550;18.526;2024-03-06T02:32:34;7.47;;;4.13;;
66487;SDS011;53304;54.550;18.526;2024-03-06T02:35:00;8.68;;;4.75;;
66487;SDS011;53304;54.550;18.526;2024-03-06T02:37:27;7.75;;;4.53;;
66487;SDS011;53304;54.550;18.526;2024-03-06T02:39:55;7.78;;;4.40;;
66487;SDS011;53304;54.550;18.526;2024-03-06T02:42:27;7.00;;;4.20;;
66487;SDS011;53304;54.550;18.526;2024-03-06T02:44:53;7.50;;;4.20;;
66487;SDS011;53304;54.550;18.526;2024-03-06T02:47:18;7.75;;;4.20;;
66487;SDS011;53304;54.550;18.526;2024-03-06T02:49:46;6.75;;;4.15;;
66487;SDS011;53304;54.550;18.526;2024-03-06T02:52:14;7.90;;;4.28;;
66487;SDS011;53304;54.550;18.526;2024-03-06T02:54:43;8.98;;;4.88;;
66487;SDS011;53304;54.550;18.526;2024-03-06T02:57:08;8.15;;;4.38;;
66487;SDS011;53304;54.550;18.526;2024-03-06T02:59:34;8.10;;;4.28;;
66487;SDS011;53304;54.550;18.526;2024-03-06T03:01:59;6.25;;;4.03;;
66487;SDS011;53304;54.550;18.526;2024-03-06T03:04:28;6.65;;;4.07;;
66487;SDS011;53304;54.550;18.526;2024-03-06T03:06:56;5.95;;;3.90;;
66487;SDS011;53304;54.550;18.526;2024-03-06T03:09:23;7.13;;;4.40;;
66487;SDS011;53304;54.550;18.526;2024-03-06T03:11:51;7.50;;;4.68;;
66487;SDS011;53304;54.550;18.526;2024-03-06T03:14:17;7.53;;;4.25;;
66487;SDS011;53304;54.550;18.526;2024-03-06T03:16:42;6.78;;;4.35;;
66487;SDS011;53304;54.550;18.526;2024-03-06T03:19:10;7.03;;;4.13;;
66487;SDS011;53304;54.550;18.526;2024-03-06T03:21:40;8.85;;;4.50;;
66487;SDS011;53304;54.550;18.526;2024-03-06T03:24:08;7.13;;;4.68;;
66487;SDS011;53304;54.550;18.526;2024-03-06T03:26:33;7.72;;;4.40;;
66487;SDS011;53304;54.550;18.526;2024-03-06T03:29:02;7.30;;;3.97;;
66487;SDS011;53304;54.550;18.526;2024-03-06T03:31:28;6.25;;;4.30;;
66487;SDS011;53304;54.550;18.526;2024-03-06T03:33:56;6.90;;;4.30;;
66487;SDS011;53304;54.550;18.526;2024-03-06T03:36:24;8.02;;;4.53;;
66487;SDS011;53304;54.550;18.526;2024-03-06T03:38:52;7.40;;;4.50;;
66487;SDS011;53304;54.550;18.526;2024-03-06T03:41:20;8.73;;;4.63;;
66487;SDS011;53304;54.550;18.526;2024-03-06T03:43:45;7.50;;;4.38;;
66487;SDS011;53304;54.550;18.526;2024-03-06T03:46:16;7.47;;;4.15;;
66487;SDS011;53304;54.550;18.526;2024-03-06T03:48:41;7.93;;;4.57;;
66487;SDS011;53304;54.550;18.526;2024-03-06T03:51:08;8.25;;;4.78;;
66487;SDS011;53304;54.550;18.526;2024-03-06T03:53:36;7.35;;;4.50;;
66487;SDS011;53304;54.550;18.526;2024-03-06T03:56:01;6.60;;;4.60;;
66487;SDS011;53304;54.550;18.526;2024-03-06T03:58:29;6.43;;;4.35;;
66487;SDS011;53304;54.550;18.526;2024-03-06T04:00:57;7.68;;;4.47;;
66487;SDS011;53304;54.550;18.526;2024-03-06T04:03:22;7.25;;;4.68;;
66487;SDS011;53304;54.550;18.526;2024-03-06T04:05:50;6.90;;;4.43;;
66487;SDS011;53304;54.550;18.526;2024-03-06T04:08:21;7.00;;;4.22;;
66487;SDS011;53304;54.550;18.526;2024-03-06T04:10:49;6.95;;;4.28;;
66487;SDS011;53304;54.550;18.526;2024-03-06T04:13:15;8.18;;;4.80;;
66487;SDS011;53304;54.550;18.526;2024-03-06T04:15:41;7.45;;;4.10;;
66487;SDS011;53304;54.550;18.526;2024-03-06T04:18:08;8.65;;;4.53;;
66487;SDS011;53304;54.550;18.526;2024-03-06T04:20:34;7.50;;;4.22;;
66487;SDS011;53304;54.550;18.526;2024-03-06T04:23:02;8.93;;;5.32;;
66487;SDS011;53304;54.550;18.526;2024-03-06T04:25:27;9.65;;;4.57;;
66487;SDS011;53304;54.550;18.526;2024-03-06T04:27:53;7.75;;;4.32;;
66487;SDS011;53304;54.550;18.526;2024-03-06T04:30:18;8.07;;;4.50;;
66487;SDS011;53304;54.550;18.526;2024-03-06T04:32:46;7.75;;;4.13;;
66487;SDS011;53304;54.550;18.526;2024-03-06T04:35:11;7.93;;;4.60;;
66487;SDS011;53304;54.550;18.526;2024-03-06T04:37:37;7.38;;;4.30;;
66487;SDS011;53304;54.550;18.526;2024-03-06T04:40:05;7.22;;;4.28;;
66487;SDS011;53304;54.550;18.526;2024-03-06T04:42:36;7.50;;;4.40;;
66487;SDS011;53304;54.550;18.526;2024-03-06T04:45:03;10.65;;;4.60;;
66487;SDS011;53304;54.550;18.526;2024-03-06T04:47:31;9.40;;;4.68;;
66487;SDS011;53304;54.550;18.526;2024-03-06T04:49:59;7.57;;;4.45;;
66487;SDS011;53304;54.550;18.526;2024-03-06T04:52:27;6.85;;;4.35;;
66487;SDS011;53304;54.550;18.526;2024-03-06T04:54:54;8.45;;;4.45;;
66487;SDS011;53304;54.550;18.526;2024-03-06T04:57:20;8.23;;;4.35;;
66487;SDS011;53304;54.550;18.526;2024-03-06T04:59:47;6.13;;;3.88;;
66487;SDS011;53304;54.550;18.526;2024-03-06T05:02:13;7.45;;;4.45;;
66487;SDS011;53304;54.550;18.526;2024-03-06T05:04:41;7.57;;;4.55;;
66487;SDS011;53304;54.550;18.526;2024-03-06T05:07:11;8.13;;;4.35;;
66487;SDS011;53304;54.550;18.526;2024-03-06T05:09:38;9.85;;;4.68;;
66487;SDS011;53304;54.550;18.526;2024-03-06T05:12:09;7.53;;;4.22;;
66487;SDS011;53304;54.550;18.526;2024-03-06T05:14:34;7.75;;;4.40;;
66487;SDS011;53304;54.550;18.526;2024-03-06T05:17:04;7.40;;;4.20;;
66487;SDS011;53304;54.550;18.526;2024-03-06T05:19:30;6.72;;;4.13;;
66487;SDS011;53304;54.550;18.526;2024-03-06T05:21:59;7.45;;;4.20;;
66487;SDS011;53304;54.550;18.526;2024-03-06T05:24:24;7.53;;;4.55;;
66487;SDS011;53304;54.550;18.526;2024-03-06T05:26:50;8.77;;;4.20;;
66487;SDS011;53304;54.550;18.526;2024-03-06T05:29:20;7.15;;;4.38;;
66487;SDS011;53304;54.550;18.526;2024-03-06T05:31:48;7.10;;;4.13;;
66487;SDS011;53304;54.550;18.526;2024-03-06T05:34:20;6.90;;;3.90;;
66487;SDS011;53304;54.550;18.526;2024-03-06T05:36:48;8.45;;;4.07;;
66487;SDS011;53304;54.550;18.526;2024-03-06T05:39:16;8.43;;;4.55;;
66487;SDS011;53304;54.550;18.526;2024-03-06T05:41:42;8.30;;;4.18;;
66487;SDS011;53304;54.550;18.526;2024-03-06T05:44:13;7.15;;;4.10;;
66487;SDS011;53304;54.550;18.526;2024-03-06T05:46:40;8.55;;;4.45;;
66487;SDS011;53304;54.550;18.526;2024-03-06T05:49:06;7.45;;;4.28;;
66487;SDS011;53304;54.550;18.526;2024-03-06T05:51:34;5.72;;;3.83;;
66487;SDS011;53304;54.550;18.526;2024-03-06T05:54:01;7.30;;;4.40;;
66487;SDS011;53304;54.550;18.526;2024-03-06T05:56:31;7.90;;;4.40;;
66487;SDS011;53304;54.550;18.526;2024-03-06T05:58:56;8.45;;;4.72;;
66487;SDS011;53304;54.550;18.526;2024-03-06T06:01:29;9.90;;;4.45;;
66487;SDS011;53304;54.550;18.526;2024-03-06T06:03:58;7.43;;;3.97;;
66487;SDS011;53304;54.550;18.526;2024-03-06T06:06:28;6.65;;;4.05;;
66487;SDS011;53304;54.550;18.526;2024-03-06T06:08:53;6.40;;;3.88;;
66487;SDS011;53304;54.550;18.526;2024-03-06T06:11:21;6.03;;;3.88;;
66487;SDS011;53304;54.550;18.526;2024-03-06T06:13:51;6.60;;;4.18;;
66487;SDS011;53304;54.550;18.526;2024-03-06T06:16:17;7.22;;;3.90;;
66487;SDS011;53304;54.550;18.526;2024-03-06T06:18:45;5.82;;;3.70;;
66487;SDS011;53304;54.550;18.526;2024-03-06T06:21:15;7.10;;;3.90;;
66487;SDS011;53304;54.550;18.526;2024-03-06T06:23:41;7.75;;;4.03;;
66487;SDS011;53304;54.550;18.526;2024-03-06T06:26:07;6.88;;;4.07;;
66487;SDS011;53304;54.550;18.526;2024-03-06T06:28:36;7.15;;;4.05;;
66487;SDS011;53304;54.550;18.526;2024-03-06T06:31:02;7.10;;;4.20;;
66487;SDS011;53304;54.550;18.526;2024-03-06T06:33:32;7.88;;;4.40;;
66487;SDS011;53304;54.550;18.526;2024-03-06T06:35:58;5.95;;;3.38;;
66487;SDS011;53304;54.550;18.526;2024-03-06T06:38:24;6.00;;;3.70;;
66487;SDS011;53304;54.550;18.526;2024-03-06T06:40:49;6.93;;;3.95;;
66487;SDS011;53304;54.550;18.526;2024-03-06T06:43:15;6.35;;;3.30;;
66487;SDS011;53304;54.550;18.526;2024-03-06T06:45:41;6.43;;;3.42;;
66487;SDS011;53304;54.550;18.526;2024-03-06T06:48:06;6.03;;;3.50;;
66487;SDS011;53304;54.550;18.526;2024-03-06T06:50:35;5.53;;;3.30;;
66487;SDS011;53304;54.550;18.526;2024-03-06T06:53:01;7.57;;;3.80;;
66487;SDS011;53304;54.550;18.526;2024-03-06T06:55:28;6.00;;;3.50;;
66487;SDS011;53304;54.550;18.526;2024-03-06T06:57:56;5.70;;;3.42;;
66487;SDS011;53304;54.550;18.526;2024-03-06T07:00:22;6.88;;;3.95;;
66487;SDS011;53304;54.550;18.526;2024-03-06T07:02:52;6.53;;;3.85;;
66487;SDS011;53304;54.550;18.526;2024-03-06T07:05:23;6.05;;;3.65;;
66487;SDS011;53304;54.550;18.526;2024-03-06T07:07:49;7.05;;;3.45;;
66487;SDS011;53304;54.550;18.526;2024-03-06T07:10:16;6.82;;;3.25;;
66487;SDS011;53304;54.550;18.526;2024-03-06T07:12:46;6.75;;;3.67;;
66487;SDS011;53304;54.550;18.526;2024-03-06T07:15:14;7.82;;;3.50;;
66487;SDS011;53304;54.550;18.526;2024-03-06T07:17:44;8.52;;;3.58;;
66487;SDS011;53304;54.550;18.526;2024-03-06T07:20:14;6.13;;;3.60;;
66487;SDS011;53304;54.550;18.526;2024-03-06T07:22:45;12.40;;;3.80;;
66487;SDS011;53304;54.550;18.526;2024-03-06T07:25:15;5.20;;;3.22;;
66487;SDS011;53304;54.550;18.526;2024-03-06T07:27:43;10.13;;;3.88;;
66487;SDS011;53304;54.550;18.526;2024-03-06T07:30:08;6.47;;;3.42;;
66487;SDS011;53304;54.550;18.526;2024-03-06T07:32:34;8.00;;;3.58;;
66487;SDS011;53304;54.550;18.526;2024-03-06T07:35:02;7.63;;;3.30;;
66487;SDS011;53304;54.550;18.526;2024-03-06T07:37:30;8.95;;;3.92;;
66487;SDS011;53304;54.550;18.526;2024-03-06T07:39:55;6.78;;;3.33;;
66487;SDS011;53304;54.550;18.526;2024-03-06T07:42:22;7.50;;;3.42;;
66487;SDS011;53304;54.550;18.526;2024-03-06T07:44:47;6.28;;;3.22;;
66487;SDS011;53304;54.550;18.526;2024-03-06T07:47:12;8.15;;;3.42;;
66487;SDS011;53304;54.550;18.526;2024-03-06T07:49:39;7.75;;;3.67;;
66487;SDS011;53304;54.550;18.526;2024-03-06T07:52:09;7.70;;;3.28;;
66487;SDS011;53304;54.550;18.526;2024-03-06T07:54:37;6.88;;;3.45;;
66487;SDS011;53304;54.550;18.526;2024-03-06T07:57:05;6.65;;;3.63;;
66487;SDS011;53304;54.550;18.526;2024-03-06T07:59:34;7.40;;;3.33;;
66487;SDS011;53304;54.550;18.526;2024-03-06T08:02:00;5.72;;;3.40;;
66487;SDS011;53304;54.550;18.526;2024-03-06T08:04:26;6.75;;;3.65;;
66487;SDS011;53304;54.550;18.526;2024-03-06T08:06:52;7.80;;;3.47;;
66487;SDS011;53304;54.550;18.526;2024-03-06T08:09:22;6.05;;;3.17;;
66487;SDS011;53304;54.550;18.526;2024-03-06T08:11:53;6.70;;;3.25;;
66487;SDS011;53304;54.550;18.526;2024-03-06T08:14:22;5.22;;;3.05;;
66487;SDS011;53304;54.550;18.526;2024-03-06T08:16:50;7.25;;;3.50;;
66487;SDS011;53304;54.550;18.526;2024-03-06T08:19:16;6.10;;;3.13;;
66487;SDS011;53304;54.550;18.526;2024-03-06T08:21:41;6.30;;;3.47;;
66487;SDS011;53304;54.550;18.526;2024-03-06T08:24:12;5.85;;;3.28;;
66487;SDS011;53304;54.550;18.526;2024-03-06T08:26:42;7.13;;;3.30;;
66487;SDS011;53304;54.550;18.526;2024-03-06T08:29:13;7.15;;;3.30;;
66487;SDS011;53304;54.550;18.526;2024-03-06T08:31:38;7.00;;;3.33;;
66487;SDS011;53304;54.550;18.526;2024-03-06T08:34:06;6.25;;;3.33;;
66487;SDS011;53304;54.550;18.526;2024-03-06T08:36:32;6.20;;;3.10;;
66487;SDS011;53304;54.550;18.526;2024-03-06T08:38:58;6.03;;;3.67;;
66487;SDS011;53304;54.550;18.526;2024-03-06T08:41:23;5.90;;;3.33;;
66487;SDS011;53304;54.550;18.526;2024-03-06T08:43:51;6.28;;;3.35;;
66487;SDS011;53304;54.550;18.526;2024-03-06T08:46:16;6.70;;;3.38;;
66487;SDS011;53304;54.550;18.526;2024-03-06T08:48:41;5.90;;;3.58;;
66487;SDS011;53304;54.550;18.526;2024-03-06T08:51:09;7.05;;;3.30;;
66487;SDS011;53304;54.550;18.526;2024-03-06T08:53:36;6.20;;;3.30;;
66487;SDS011;53304;54.550;18.526;2024-03-06T08:56:02;11.40;;;3.72;;
66487;SDS011;53304;54.550;18.526;2024-03-06T08:58:28;7.28;;;3.42;;
66487;SDS011;53304;54.550;18.526;2024-03-06T09:00:54;7.22;;;3.50;;
66487;SDS011;53304;54.550;18.526;2024-03-06T09:03:26;7.03;;;4.28;;
66487;SDS011;53304;54.550;18.526;2024-03-06T09:05:54;7.55;;;3.35;;
66487;SDS011;53304;54.550;18.526;2024-03-06T09:08:22;7.10;;;3.58;;
66487;SDS011;53304;54.550;18.526;2024-03-06T09:10:47;6.25;;;3.25;;
66487;SDS011;53304;54.550;18.526;2024-03-06T09:13:15;5.30;;;3.30;;
66487;SDS011;53304;54.550;18.526;2024-03-06T09:15:43;8.43;;;3.03;;
66487;SDS011;53304;54.550;18.526;2024-03-06T09:18:08;7.93;;;3.60;;
66487;SDS011;53304;54.550;18.526;2024-03-06T09:20:40;7.55;;;3.35;;
66487;SDS011;53304;54.550;18.526;2024-03-06T09:23:08;10.07;;;3.47;;
66487;SDS011;53304;54.550;18.526;2024-03-06T09:25:36;5.95;;;3.33;;
66487;SDS011;53304;54.550;18.526;2024-03-06T09:28:05;5.95;;;3.15;;
66487;SDS011;53304;54.550;18.526;2024-03-06T09:30:33;6.20;;;3.20;;
66487;SDS011;53304;54.550;18.526;2024-03-06T09:33:04;6.65;;;3.15;;
66487;SDS011;53304;54.550;18.526;2024-03-06T09:35:29;5.80;;;2.67;;
66487;SDS011;53304;54.550;18.526;2024-03-06T09:37:58;7.65;;;3.20;;
66487;SDS011;53304;54.550;18.526;2024-03-06T09:40:30;5.88;;;3.10;;
66487;SDS011;53304;54.550;18.526;2024-03-06T09:42:56;5.50;;;3.25;;
66487;SDS011;53304;54.550;18.526;2024-03-06T09:45:21;6.55;;;3.38;;
66487;SDS011;53304;54.550;18.526;2024-03-06T09:47:47;7.50;;;3.58;;
66487;SDS011;53304;54.550;18.526;2024-03-06T09:50:16;5.32;;;3.08;;
66487;SDS011;53304;54.550;18.526;2024-03-06T09:52:44;8.32;;;3.25;;
66487;SDS011;53304;54.550;18.526;2024-03-06T09:55:15;7.03;;;3.38;;
66487;SDS011;53304;54.550;18.526;2024-03-06T09:57:46;7.80;;;3.63;;
66487;SDS011;53304;54.550;18.526;2024-03-06T10:00:19;5.85;;;3.35;;
66487;SDS011;53304;54.550;18.526;2024-03-06T10:02:59;7.03;;;3.55;;
66487;SDS011;53304;54.550;18.526;2024-03-06T10:05:32;6.13;;;3.28;;
66487;SDS011;53304;54.550;18.526;2024-03-06T10:08:01;7.22;;;3.38;;
66487;SDS011;53304;54.550;18.526;2024-03-06T10:10:29;6.00;;;3.33;;
66487;SDS011;53304;54.550;18.526;2024-03-06T10:12:57;6.78;;;3.35;;
66487;SDS011;53304;54.550;18.526;2024-03-06T10:15:28;6.90;;;3.53;;
66487;SDS011;53304;54.550;18.526;2024-03-06T10:18:09;6.32;;;3.53;;
66487;SDS011;53304;54.550;18.526;2024-03-06T10:20:38;6.90;;;3.58;;
66487;SDS011;53304;54.550;18.526;2024-03-06T10:23:03;7.57;;;3.75;;
66487;SDS011;53304;54.550;18.526;2024-03-06T10:25:31;7.40;;;3.60;;
66487;SDS011;53304;54.550;18.526;2024-03-06T10:28:10;7.13;;;3.50;;
66487;SDS011;53304;54.550;18.526;2024-03-06T10:30:40;6.70;;;3.65;;
66487;SDS011;53304;54.550;18.526;2024-03-06T10:33:12;6.88;;;3.42;;
66487;SDS011;53304;54.550;18.526;2024-03-06T10:35:42;6.53;;;3.70;;
66487;SDS011;53304;54.550;18.526;2024-03-06T10:38:14;6.13;;;3.58;;
66487;SDS011;53304;54.550;18.526;2024-03-06T10:40:40;7.15;;;3.42;;
66487;SDS011;53304;54.550;18.526;2024-03-06T10:43:08;8.27;;;3.33;;
66487;SDS011;53304;54.550;18.526;2024-03-06T10:48:08;6.15;;;3.47;;
66487;SDS011;53304;54.550;18.526;2024-03-06T10:50:38;6.82;;;3.40;;
66487;SDS011;53304;54.550;18.526;2024-03-06T10:53:11;6.68;;;3.80;;
66487;SDS011;53304;54.550;18.526;2024-03-06T10:55:40;6.65;;;3.58;;
66487;SDS011;53304;54.550;18.526;2024-03-06T10:58:09;5.15;;;3.25;;
66487;SDS011;53304;54.550;18.526;2024-03-06T11:00:37;7.18;;;3.58;;
66487;SDS011;53304;54.550;18.526;2024-03-06T11:03:07;6.35;;;3.35;;
66487;SDS011;53304;54.550;18.526;2024-03-06T11:05:40;7.28;;;3.70;;
66487;SDS011;53304;54.550;18.526;2024-03-06T11:08:13;8.48;;;3.83;;
66487;SDS011;53304;54.550;18.526;2024-03-06T11:10:42;6.55;;;3.47;;
66487;SDS011;53304;54.550;18.526;2024-03-06T11:13:24;6.68;;;3.35;;
66487;SDS011;53304;54.550;18.526;2024-03-06T11:15:51;7.82;;;3.80;;
66487;SDS011;53304;54.550;18.526;2024-03-06T11:23:32;7.43;;;3.50;;
66487;SDS011;53304;54.550;18.526;2024-03-06T11:28:29;6.35;;;3.47;;
66487;SDS011;53304;54.550;18.526;2024-03-06T11:31:08;5.60;;;3.53;;
66487;SDS011;53304;54.550;18.526;2024-03-06T11:41:26;8.23;;;3.60;;
66487;SDS011;53304;54.550;18.526;2024-03-06T11:43:56;8.38;;;3.90;;
66487;SDS011;53304;54.550;18.526;2024-03-06T11:46:46;6.82;;;3.75;;
66487;SDS011;53304;54.550;18.526;2024-03-06T11:49:22;6.68;;;3.67;;
66487;SDS011;53304;54.550;18.526;2024-03-06T11:51:51;5.63;;;3.40;;
66487;SDS011;53304;54.550;18.526;2024-03-06T11:54:22;6.47;;;3.40;;
66487;SDS011;53304;54.550;18.526;2024-03-06T11:56:51;5.70;;;3.15;;
66487;SDS011;53304;54.550;18.526;2024-03-06T11:59:26;6.88;;;3.60;;
66487;SDS011;53304;54.550;18.526;2024-03-06T12:01:55;5.60;;;3.45;;
66487;SDS011;53304;54.550;18.526;2024-03-06T12:04:24;6.82;;;3.90;;
66487;SDS011;53304;54.550;18.526;2024-03-06T12:06:50;7.20;;;3.85;;
66487;SDS011;53304;54.550;18.526;2024-03-06T12:09:16;7.65;;;3.95;;
66487;SDS011;53304;54.550;18.526;2024-03-06T12:11:44;8.32;;;3.70;;
66487;SDS011;53304;54.550;18.526;2024-03-06T12:14:19;7.20;;;4.15;;
66487;SDS011;53304;54.550;18.526;2024-03-06T12:16:55;7.72;;;3.83;;
66487;SDS011;53304;54.550;18.526;2024-03-06T12:19:21;7.40;;;4.20;;
66487;SDS011;53304;54.550;18.526;2024-03-06T12:21:51;7.25;;;4.00;;
66487;SDS011;53304;54.550;18.526;2024-03-06T12:24:20;7.15;;;3.47;;
66487;SDS011;53304;54.550;18.526;2024-03-06T12:26:46;6.45;;;3.60;;
66487;SDS011;53304;54.550;18.526;2024-03-06T12:29:17;6.82;;;3.38;;
66487;SDS011;53304;54.550;18.526;2024-03-06T12:31:45;5.93;;;3.38;;
66487;SDS011;53304;54.550;18.526;2024-03-06T12:34:14;7.57;;;3.80;;
66487;SDS011;53304;54.550;18.526;2024-03-06T12:36:43;6.33;;;3.40;;
66487;SDS011;53304;54.550;18.526;2024-03-06T12:39:14;6.10;;;3.50;;
66487;SDS011;53304;54.550;18.526;2024-03-06T12:41:43;7.78;;;3.53;;
66487;SDS011;53304;54.550;18.526;2024-03-06T12:44:10;6.30;;;3.22;;
66487;SDS011;53304;54.550;18.526;2024-03-06T12:46:35;5.13;;;3.20;;
66487;SDS011;53304;54.550;18.526;2024-03-06T12:49:03;5.60;;;3.40;;
66487;SDS011;53304;54.550;18.526;2024-03-06T12:51:31;6.25;;;3.13;;
66487;SDS011;53304;54.550;18.526;2024-03-06T12:53:57;7.07;;;3.80;;
66487;SDS011;53304;54.550;18.526;2024-03-06T12:56:23;8.30;;;3.30;;
66487;SDS011;53304;54.550;18.526;2024-03-06T12:58:50;6.65;;;3.60;;
66487;SDS011;53304;54.550;18.526;2024-03-06T13:01:19;6.97;;;3.50;;
66487;SDS011;53304;54.550;18.526;2024-03-06T13:03:45;7.60;;;3.53;;
66487;SDS011;53304;54.550;18.526;2024-03-06T13:06:14;6.00;;;3.10;;
66487;SDS011;53304;54.550;18.526;2024-03-06T13:08:39;6.07;;;3.30;;
66487;SDS011;53304;54.550;18.526;2024-03-06T13:11:05;6.22;;;3.75;;
66487;SDS011;53304;54.550;18.526;2024-03-06T13:13:30;6.28;;;3.40;;
66487;SDS011;53304;54.550;18.526;2024-03-06T13:16:02;6.35;;;3.45;;
66487;SDS011;53304;54.550;18.526;2024-03-06T13:18:34;6.03;;;3.63;;
66487;SDS011;53304;54.550;18.526;2024-03-06T13:20:59;6.03;;;3.38;;
66487;SDS011;53304;54.550;18.526;2024-03-06T13:23:27;6.95;;;3.70;;
66487;SDS011;53304;54.550;18.526;2024-03-06T13:25:52;5.50;;;3.38;;
66487;SDS011;53304;54.550;18.526;2024-03-06T13:28:18;6.28;;;3.20;;
66487;SDS011;53304;54.550;18.526;2024-03-06T13:30:46;6.30;;;3.13;;
66487;SDS011;53304;54.550;18.526;2024-03-06T13:33:11;6.03;;;3.50;;
66487;SDS011;53304;54.550;18.526;2024-03-06T13:35:37;6.50;;;3.40;;
66487;SDS011;53304;54.550;18.526;2024-03-06T13:38:05;6.30;;;3.40;;
66487;SDS011;53304;54.550;18.526;2024-03-06T13:40:32;6.70;;;3.42;;
66487;SDS011;53304;54.550;18.526;2024-03-06T13:42:58;5.50;;;3.45;;
66487;SDS011;53304;54.550;18.526;2024-03-06T13:45:28;6.82;;;3.47;;
66487;SDS011;53304;54.550;18.526;2024-03-06T13:47:54;7.68;;;3.38;;
66487;SDS011;53304;54.550;18.526;2024-03-06T13:50:19;6.47;;;3.40;;
66487;SDS011;53304;54.550;18.526;2024-03-06T13:52:46;5.38;;;3.33;;
66487;SDS011;53304;54.550;18.526;2024-03-06T13:55:12;6.05;;;3.20;;
66487;SDS011;53304;54.550;18.526;2024-03-06T13:57:40;5.38;;;3.08;;
66487;SDS011;53304;54.550;18.526;2024-03-06T14:00:08;6.47;;;3.30;;
66487;SDS011;53304;54.550;18.526;2024-03-06T14:02:44;7.55;;;3.50;;
66487;SDS011;53304;54.550;18.526;2024-03-06T14:05:12;5.38;;;3.28;;
66487;SDS011;53304;54.550;18.526;2024-03-06T14:07:42;6.50;;;3.20;;
66487;SDS011;53304;54.550;18.526;2024-03-06T14:10:10;5.40;;;3.30;;
66487;SDS011;53304;54.550;18.526;2024-03-06T14:12:36;5.43;;;3.00;;
66487;SDS011;53304;54.550;18.526;2024-03-06T14:15:06;6.22;;;3.17;;
66487;SDS011;53304;54.550;18.526;2024-03-06T14:17:37;5.55;;;3.50;;
66487;SDS011;53304;54.550;18.526;2024-03-06T14:20:03;6.05;;;3.30;;
66487;SDS011;53304;54.550;18.526;2024-03-06T14:22:28;6.18;;;3.20;;
66487;SDS011;53304;54.550;18.526;2024-03-06T14:24:58;6.30;;;3.25;;
66487;SDS011;53304;54.550;18.526;2024-03-06T14:27:26;6.13;;;3.35;;
66487;SDS011;53304;54.550;18.526;2024-03-06T14:29:52;6.82;;;3.22;;
66487;SDS011;53304;54.550;18.526;2024-03-06T14:32:19;7.03;;;3.00;;
66487;SDS011;53304;54.550;18.526;2024-03-06T14:34:45;6.10;;;3.22;;
66487;SDS011;53304;54.550;18.526;2024-03-06T14:37:10;6.53;;;3.15;;
66487;SDS011;53304;54.550;18.526;2024-03-06T14:39:38;6.15;;;3.28;;
66487;SDS011;53304;54.550;18.526;2024-03-06T14:42:03;6.45;;;3.13;;
66487;SDS011;53304;54.550;18.526;2024-03-06T14:44:29;6.95;;;3.90;;
66487;SDS011;53304;54.550;18.526;2024-03-06T14:46:57;5.30;;;3.05;;
66487;SDS011;53304;54.550;18.526;2024-03-06T14:49:27;5.47;;;2.92;;
66487;SDS011;53304;54.550;18.526;2024-03-06T14:51:53;6.30;;;3.42;;
66487;SDS011;53304;54.550;18.526;2024-03-06T14:54:18;6.40;;;2.83;;
66487;SDS011;53304;54.550;18.526;2024-03-06T14:56:50;6.90;;;3.42;;